sensor_id;sensor_type;location;lat;lon;timestamp;pressure;altitude;pressure_sealevel;temperature;humidity
76434;BME280;65265;53.200;6.080;2023-01-10T00:02:52;100924.63;;;4.96;93.90
76434;BME280;65265;53.200;6.080;2023-01-10T00:07:45;100935.63;;;4.97;93.96
76434;BME280;65265;53.200;6.080;2023-01-10T00:12:36;100947.22;;;5.06;94.30
76434;BME280;65265;53.200;6.080;2023-01-10T00:17:45;100960.06;;;5.22;94.51
76434;BME280;65265;53.200;6.080;2023-01-10T00:22:37;100956.34;;;5.30;94.75
76434;BME280;65265;53.200;6.080;2023-01-10T00:27:29;100971.53;;;5.43;94.33
76434;BME280;65265;53.200;6.080;2023-01-10T00:32:21;100976.09;;;5.49;94.07
76434;BME280;65265;53.200;6.080;2023-01-10T00:37:13;100992.00;;;5.46;93.41
76434;BME280;65265;53.200;6.080;2023-01-10T00:42:04;101003.22;;;5.50;93.31
76434;BME280;65265;53.200;6.080;2023-01-10T00:47:15;101003.91;;;5.47;92.36
76434;BME280;65265;53.200;6.080;2023-01-10T00:52:07;101009.88;;;5.48;92.72
76434;BME280;65265;53.200;6.080;2023-01-10T00:56:59;101006.16;;;5.43;92.44
76434;BME280;65265;53.200;6.080;2023-01-10T01:01:51;101013.25;;;5.48;93.07
76434;BME280;65265;53.200;6.080;2023-01-10T01:06:43;101022.84;;;5.52;92.98
76434;BME280;65265;53.200;6.080;2023-01-10T01:11:36;101020.88;;;5.61;92.93
76434;BME280;65265;53.200;6.080;2023-01-10T01:16:28;101035.31;;;5.62;92.93
76434;BME280;65265;53.200;6.080;2023-01-10T01:21:19;101040.38;;;5.62;92.99
76434;BME280;65265;53.200;6.080;2023-01-10T01:26:12;101047.00;;;5.60;93.04
76434;BME280;65265;53.200;6.080;2023-01-10T01:31:07;101056.84;;;5.69;92.98
76434;BME280;65265;53.200;6.080;2023-01-10T01:35:58;101073.50;;;5.78;92.92
76434;BME280;65265;53.200;6.080;2023-01-10T01:40:50;101068.56;;;5.80;92.59
76434;BME280;65265;53.200;6.080;2023-01-10T01:45:45;101085.22;;;5.76;92.64
76434;BME280;65265;53.200;6.080;2023-01-10T01:50:40;101086.81;;;5.74;92.41
76434;BME280;65265;53.200;6.080;2023-01-10T01:55:35;101084.38;;;5.63;92.25
76434;BME280;65265;53.200;6.080;2023-01-10T02:00:28;101085.81;;;5.59;92.55
76434;BME280;65265;53.200;6.080;2023-01-10T02:05:21;101094.03;;;5.55;93.27
76434;BME280;65265;53.200;6.080;2023-01-10T02:10:17;101098.50;;;5.59;93.65
76434;BME280;65265;53.200;6.080;2023-01-10T02:15:12;101107.88;;;5.60;94.21
76434;BME280;65265;53.200;6.080;2023-01-10T02:20:06;101115.41;;;5.59;94.80
76434;BME280;65265;53.200;6.080;2023-01-10T02:25:28;101115.00;;;5.66;95.02
76434;BME280;65265;53.200;6.080;2023-01-10T02:30:53;101128.56;;;5.66;95.44
76434;BME280;65265;53.200;6.080;2023-01-10T02:36:00;101126.13;;;5.68;95.75
76434;BME280;65265;53.200;6.080;2023-01-10T02:41:00;101131.50;;;5.72;95.89
76434;BME280;65265;53.200;6.080;2023-01-10T02:45:56;101121.34;;;5.72;96.14
76434;BME280;65265;53.200;6.080;2023-01-10T02:50:55;101129.34;;;5.78;96.16
76434;BME280;65265;53.200;6.080;2023-01-10T02:56:01;101135.97;;;5.76;96.24
76434;BME280;65265;53.200;6.080;2023-01-10T03:01:03;101147.88;;;5.77;96.54
76434;BME280;65265;53.200;6.080;2023-01-10T03:06:08;101158.25;;;5.80;96.69
76434;BME280;65265;53.200;6.080;2023-01-10T03:11:04;101152.00;;;5.75;96.97
76434;BME280;65265;53.200;6.080;2023-01-10T03:15:57;101169.06;;;5.78;96.90
76434;BME280;65265;53.200;6.080;2023-01-10T03:20:51;101161.47;;;5.78;96.76
76434;BME280;65265;53.200;6.080;2023-01-10T03:25:45;101170.72;;;5.77;96.95
76434;BME280;65265;53.200;6.080;2023-01-10T03:30:41;101180.41;;;5.83;97.05
76434;BME280;65265;53.200;6.080;2023-01-10T03:35:45;101183.63;;;5.80;96.79
76434;BME280;65265;53.200;6.080;2023-01-10T03:40:44;101180.38;;;5.70;96.71
76434;BME280;65265;53.200;6.080;2023-01-10T03:45:44;101188.56;;;5.66;96.70
76434;BME280;65265;53.200;6.080;2023-01-10T03:50:40;101192.78;;;5.65;96.59
76434;BME280;65265;53.200;6.080;2023-01-10T03:55:34;101192.97;;;5.68;96.44
76434;BME280;65265;53.200;6.080;2023-01-10T04:00:26;101194.34;;;5.63;96.20
76434;BME280;65265;53.200;6.080;2023-01-10T04:05:19;101193.94;;;5.57;96.28
76434;BME280;65265;53.200;6.080;2023-01-10T04:10:11;101212.47;;;5.56;96.51
76434;BME280;65265;53.200;6.080;2023-01-10T04:15:03;101215.41;;;5.62;96.92
76434;BME280;65265;53.200;6.080;2023-01-10T04:19:54;101222.44;;;5.66;96.86
76434;BME280;65265;53.200;6.080;2023-01-10T04:24:47;101227.63;;;5.68;97.13
76434;BME280;65265;53.200;6.080;2023-01-10T04:29:40;101233.56;;;5.68;97.02
76434;BME280;65265;53.200;6.080;2023-01-10T04:34:31;101230.25;;;5.69;96.55
76434;BME280;65265;53.200;6.080;2023-01-10T04:39:23;101234.16;;;5.64;96.08
76434;BME280;65265;53.200;6.080;2023-01-10T04:44:16;101243.63;;;5.67;96.47
76434;BME280;65265;53.200;6.080;2023-01-10T04:49:08;101261.56;;;5.70;97.30
76434;BME280;65265;53.200;6.080;2023-01-10T04:53:59;101273.88;;;5.77;97.35
76434;BME280;65265;53.200;6.080;2023-01-10T04:58:51;101270.47;;;5.76;97.33
76434;BME280;65265;53.200;6.080;2023-01-10T05:03:46;101278.56;;;5.71;96.98
76434;BME280;65265;53.200;6.080;2023-01-10T05:08:37;101293.47;;;5.66;97.11
76434;BME280;65265;53.200;6.080;2023-01-10T05:13:29;101301.50;;;5.72;97.21
76434;BME280;65265;53.200;6.080;2023-01-10T05:18:20;101320.00;;;5.71;97.09
76434;BME280;65265;53.200;6.080;2023-01-10T05:23:13;101324.22;;;5.71;96.93
76434;BME280;65265;53.200;6.080;2023-01-10T05:28:05;101311.22;;;5.66;96.56
76434;BME280;65265;53.200;6.080;2023-01-10T05:32:56;101319.63;;;5.65;96.68
76434;BME280;65265;53.200;6.080;2023-01-10T05:37:48;101308.03;;;5.69;97.01
76434;BME280;65265;53.200;6.080;2023-01-10T05:42:40;101318.25;;;5.70;97.21
76434;BME280;65265;53.200;6.080;2023-01-10T05:47:32;101317.59;;;5.73;96.98
76434;BME280;65265;53.200;6.080;2023-01-10T05:52:23;101321.09;;;5.75;96.55
76434;BME280;65265;53.200;6.080;2023-01-10T05:57:15;101338.19;;;5.77;95.12
76434;BME280;65265;53.200;6.080;2023-01-10T06:02:09;101344.09;;;5.89;95.38
76434;BME280;65265;53.200;6.080;2023-01-10T06:07:01;101353.09;;;5.84;94.74
76434;BME280;65265;53.200;6.080;2023-01-10T06:11:52;101350.19;;;5.67;94.75
76434;BME280;65265;53.200;6.080;2023-01-10T06:16:44;101336.47;;;5.52;95.12
76434;BME280;65265;53.200;6.080;2023-01-10T06:21:36;101353.06;;;5.35;95.42
76434;BME280;65265;53.200;6.080;2023-01-10T06:26:28;101357.06;;;5.32;95.44
76434;BME280;65265;53.200;6.080;2023-01-10T06:31:20;101371.34;;;5.18;95.58
76434;BME280;65265;53.200;6.080;2023-01-10T06:36:11;101363.31;;;5.12;95.93
76434;BME280;65265;53.200;6.080;2023-01-10T06:41:04;101397.28;;;5.03;96.28
76434;BME280;65265;53.200;6.080;2023-01-10T06:46:03;101384.03;;;5.07;96.75
76434;BME280;65265;53.200;6.080;2023-01-10T06:50:54;101400.91;;;5.06;97.22
76434;BME280;65265;53.200;6.080;2023-01-10T06:55:46;101415.88;;;5.03;97.19
76434;BME280;65265;53.200;6.080;2023-01-10T07:00:39;101409.06;;;5.02;97.73
76434;BME280;65265;53.200;6.080;2023-01-10T07:05:32;101419.72;;;5.10;98.08
76434;BME280;65265;53.200;6.080;2023-01-10T07:10:23;101428.63;;;5.16;98.05
76434;BME280;65265;53.200;6.080;2023-01-10T07:15:15;101440.22;;;5.24;98.07
76434;BME280;65265;53.200;6.080;2023-01-10T07:20:09;101448.91;;;5.28;98.13
76434;BME280;65265;53.200;6.080;2023-01-10T07:25:01;101445.28;;;5.24;98.04
76434;BME280;65265;53.200;6.080;2023-01-10T07:29:52;101458.84;;;5.25;97.83
76434;BME280;65265;53.200;6.080;2023-01-10T07:34:44;101458.47;;;5.32;97.90
76434;BME280;65265;53.200;6.080;2023-01-10T07:39:37;101466.78;;;5.29;98.00
76434;BME280;65265;53.200;6.080;2023-01-10T07:44:30;101458.03;;;5.37;97.93
76434;BME280;65265;53.200;6.080;2023-01-10T07:49:21;101468.16;;;5.37;97.91
76434;BME280;65265;53.200;6.080;2023-01-10T07:54:13;101475.56;;;5.46;98.08
76434;BME280;65265;53.200;6.080;2023-01-10T07:59:06;101475.66;;;5.47;97.84
76434;BME280;65265;53.200;6.080;2023-01-10T08:03:57;101481.16;;;5.53;97.57
76434;BME280;65265;53.200;6.080;2023-01-10T08:08:49;101489.44;;;5.51;97.20
76434;BME280;65265;53.200;6.080;2023-01-10T08:13:40;101490.78;;;5.46;96.69
76434;BME280;65265;53.200;6.080;2023-01-10T08:18:33;101500.16;;;5.35;96.45
76434;BME280;65265;53.200;6.080;2023-01-10T08:23:25;101512.75;;;5.34;96.49
76434;BME280;65265;53.200;6.080;2023-01-10T08:28:17;101514.72;;;5.26;95.96
76434;BME280;65265;53.200;6.080;2023-01-10T08:33:10;101528.19;;;5.25;96.03
76434;BME280;65265;53.200;6.080;2023-01-10T08:38:03;101520.03;;;5.29;95.71
76434;BME280;65265;53.200;6.080;2023-01-10T08:42:56;101526.50;;;5.37;95.38
76434;BME280;65265;53.200;6.080;2023-01-10T08:47:48;101532.59;;;5.39;95.06
76434;BME280;65265;53.200;6.080;2023-01-10T08:52:39;101536.50;;;5.59;94.41
76434;BME280;65265;53.200;6.080;2023-01-10T08:57:32;101533.59;;;5.66;94.32
76434;BME280;65265;53.200;6.080;2023-01-10T09:02:24;101538.78;;;5.90;94.16
76434;BME280;65265;53.200;6.080;2023-01-10T09:07:15;101549.75;;;6.02;93.13
76434;BME280;65265;53.200;6.080;2023-01-10T09:12:07;101546.81;;;5.96;92.40
76434;BME280;65265;53.200;6.080;2023-01-10T09:17:14;101547.16;;;5.89;91.66
76434;BME280;65265;53.200;6.080;2023-01-10T09:22:05;101542.09;;;5.89;91.64
76434;BME280;65265;53.200;6.080;2023-01-10T09:26:57;101545.28;;;5.87;90.97
76434;BME280;65265;53.200;6.080;2023-01-10T09:31:48;101539.75;;;5.92;90.79
76434;BME280;65265;53.200;6.080;2023-01-10T09:36:41;101551.63;;;6.05;90.25
76434;BME280;65265;53.200;6.080;2023-01-10T09:41:54;101549.81;;;6.15;90.71
76434;BME280;65265;53.200;6.080;2023-01-10T09:46:56;101544.81;;;6.28;91.10
76434;BME280;65265;53.200;6.080;2023-01-10T09:51:55;101542.38;;;6.43;91.34
76434;BME280;65265;53.200;6.080;2023-01-10T09:56:48;101548.75;;;6.49;92.06
76434;BME280;65265;53.200;6.080;2023-01-10T10:01:40;101538.53;;;6.61;92.14
76434;BME280;65265;53.200;6.080;2023-01-10T10:06:32;101540.19;;;6.60;92.03
76434;BME280;65265;53.200;6.080;2023-01-10T10:11:38;101541.28;;;6.64;92.46
76434;BME280;65265;53.200;6.080;2023-01-10T10:16:43;101542.72;;;6.60;92.86
76434;BME280;65265;53.200;6.080;2023-01-10T10:21:47;101526.13;;;6.65;92.98
76434;BME280;65265;53.200;6.080;2023-01-10T10:26:49;101518.16;;;6.72;92.81
76434;BME280;65265;53.200;6.080;2023-01-10T10:37:18;101519.19;;;6.76;92.59
76434;BME280;65265;53.200;6.080;2023-01-10T10:42:14;101504.16;;;6.79;92.82
76434;BME280;65265;53.200;6.080;2023-01-10T10:47:12;101510.31;;;6.82;92.21
76434;BME280;65265;53.200;6.080;2023-01-10T10:52:13;101503.69;;;6.84;92.04
76434;BME280;65265;53.200;6.080;2023-01-10T10:57:09;101502.91;;;6.85;91.99
76434;BME280;65265;53.200;6.080;2023-01-10T11:02:14;101491.53;;;6.93;91.00
76434;BME280;65265;53.200;6.080;2023-01-10T11:07:14;101491.34;;;6.90;91.15
76434;BME280;65265;53.200;6.080;2023-01-10T11:12:11;101475.00;;;6.99;90.13
76434;BME280;65265;53.200;6.080;2023-01-10T11:17:19;101476.88;;;6.89;90.98
76434;BME280;65265;53.200;6.080;2023-01-10T11:22:13;101476.09;;;6.90;90.92
76434;BME280;65265;53.200;6.080;2023-01-10T11:27:14;101470.81;;;6.87;90.96
76434;BME280;65265;53.200;6.080;2023-01-10T11:32:08;101464.56;;;6.82;90.94
76434;BME280;65265;53.200;6.080;2023-01-10T11:37:18;101470.03;;;6.88;90.71
76434;BME280;65265;53.200;6.080;2023-01-10T11:42:25;101464.47;;;6.81;90.71
76434;BME280;65265;53.200;6.080;2023-01-10T11:47:19;101465.94;;;6.77;91.06
76434;BME280;65265;53.200;6.080;2023-01-10T11:52:18;101451.06;;;6.70;91.66
76434;BME280;65265;53.200;6.080;2023-01-10T11:57:15;101453.59;;;6.70;90.83
76434;BME280;65265;53.200;6.080;2023-01-10T12:02:13;101448.13;;;6.64;90.58
76434;BME280;65265;53.200;6.080;2023-01-10T12:07:09;101427.63;;;6.61;90.89
76434;BME280;65265;53.200;6.080;2023-01-10T12:12:04;101433.38;;;6.59;90.19
76434;BME280;65265;53.200;6.080;2023-01-10T12:16:59;101410.59;;;6.47;90.34
76434;BME280;65265;53.200;6.080;2023-01-10T12:21:51;101412.75;;;6.41;90.71
76434;BME280;65265;53.200;6.080;2023-01-10T12:26:44;101411.06;;;6.42;90.79
76434;BME280;65265;53.200;6.080;2023-01-10T12:31:37;101397.28;;;6.38;89.91
76434;BME280;65265;53.200;6.080;2023-01-10T12:36:45;101386.25;;;6.38;90.16
76434;BME280;65265;53.200;6.080;2023-01-10T12:41:47;101375.81;;;6.33;90.04
76434;BME280;65265;53.200;6.080;2023-01-10T12:47:21;101377.38;;;6.31;90.13
76434;BME280;65265;53.200;6.080;2023-01-10T12:52:19;101382.75;;;6.23;90.31
76434;BME280;65265;53.200;6.080;2023-01-10T12:57:16;101389.66;;;6.25;89.93
76434;BME280;65265;53.200;6.080;2023-01-10T13:02:22;101385.47;;;6.26;89.50
76434;BME280;65265;53.200;6.080;2023-01-10T13:07:16;101392.44;;;6.28;89.68
76434;BME280;65265;53.200;6.080;2023-01-10T13:12:11;101378.16;;;6.17;90.07
76434;BME280;65265;53.200;6.080;2023-01-10T13:17:18;101366.44;;;6.19;89.42
76434;BME280;65265;53.200;6.080;2023-01-10T13:22:18;101340.63;;;6.13;89.26
76434;BME280;65265;53.200;6.080;2023-01-10T13:27:18;101341.81;;;6.18;88.86
76434;BME280;65265;53.200;6.080;2023-01-10T13:32:19;101320.72;;;6.06;88.31
76434;BME280;65265;53.200;6.080;2023-01-10T13:37:13;101313.84;;;6.05;88.36
76434;BME280;65265;53.200;6.080;2023-01-10T13:48:04;101294.13;;;6.14;87.63
76434;BME280;65265;53.200;6.080;2023-01-10T13:53:42;101283.78;;;6.11;87.11
76434;BME280;65265;53.200;6.080;2023-01-10T13:58:41;101262.59;;;6.11;86.75
76434;BME280;65265;53.200;6.080;2023-01-10T14:03:53;101259.28;;;6.12;86.94
76434;BME280;65265;53.200;6.080;2023-01-10T14:08:52;101248.25;;;6.11;86.75
76434;BME280;65265;53.200;6.080;2023-01-10T14:13:46;101249.81;;;6.09;86.81
76434;BME280;65265;53.200;6.080;2023-01-10T14:18:44;101229.69;;;6.12;86.18
76434;BME280;65265;53.200;6.080;2023-01-10T14:23:39;101220.50;;;6.14;85.65
76434;BME280;65265;53.200;6.080;2023-01-10T14:28:33;101219.94;;;6.18;85.68
76434;BME280;65265;53.200;6.080;2023-01-10T14:33:26;101201.94;;;6.15;85.43
76434;BME280;65265;53.200;6.080;2023-01-10T14:38:23;101192.00;;;6.18;85.11
76434;BME280;65265;53.200;6.080;2023-01-10T14:43:23;101192.28;;;6.23;84.54
76434;BME280;65265;53.200;6.080;2023-01-10T14:48:24;101171.25;;;6.25;84.64
76434;BME280;65265;53.200;6.080;2023-01-10T14:53:27;101165.50;;;6.28;84.31
76434;BME280;65265;53.200;6.080;2023-01-10T14:58:20;101163.63;;;6.25;85.03
76434;BME280;65265;53.200;6.080;2023-01-10T15:03:17;101165.59;;;6.29;84.45
76434;BME280;65265;53.200;6.080;2023-01-10T15:08:19;101155.53;;;6.31;84.37
76434;BME280;65265;53.200;6.080;2023-01-10T15:13:13;101150.38;;;6.29;84.10
76434;BME280;65265;53.200;6.080;2023-01-10T15:18:15;101127.50;;;6.29;84.37
76434;BME280;65265;53.200;6.080;2023-01-10T15:23:13;101121.94;;;6.35;84.00
76434;BME280;65265;53.200;6.080;2023-01-10T15:28:13;101115.59;;;6.28;84.88
76434;BME280;65265;53.200;6.080;2023-01-10T15:33:10;101105.50;;;6.30;85.31
76434;BME280;65265;53.200;6.080;2023-01-10T15:38:06;101105.34;;;6.27;86.24
76434;BME280;65265;53.200;6.080;2023-01-10T15:43:16;101088.25;;;6.24;87.20
76434;BME280;65265;53.200;6.080;2023-01-10T15:48:30;101081.66;;;6.13;88.86
76434;BME280;65265;53.200;6.080;2023-01-10T15:53:53;101075.31;;;6.07;90.00
76434;BME280;65265;53.200;6.080;2023-01-10T15:58:55;101061.78;;;6.06;90.46
76434;BME280;65265;53.200;6.080;2023-01-10T16:03:51;101047.81;;;6.00;91.15
76434;BME280;65265;53.200;6.080;2023-01-10T16:08:47;101033.19;;;5.96;91.44
76434;BME280;65265;53.200;6.080;2023-01-10T16:13:39;101021.88;;;5.91;92.17
76434;BME280;65265;53.200;6.080;2023-01-10T16:18:30;101009.59;;;5.84;92.87
76434;BME280;65265;53.200;6.080;2023-01-10T16:23:25;100991.34;;;5.89;93.01
76434;BME280;65265;53.200;6.080;2023-01-10T16:28:19;100965.50;;;5.82;93.29
76434;BME280;65265;53.200;6.080;2023-01-10T16:33:13;100946.78;;;5.80;93.43
76434;BME280;65265;53.200;6.080;2023-01-10T16:38:08;100943.53;;;5.82;93.23
76434;BME280;65265;53.200;6.080;2023-01-10T16:43:02;100922.38;;;5.82;93.39
76434;BME280;65265;53.200;6.080;2023-01-10T16:48:09;100913.00;;;5.81;93.56
76434;BME280;65265;53.200;6.080;2023-01-10T16:53:00;100914.44;;;5.77;93.63
76434;BME280;65265;53.200;6.080;2023-01-10T16:57:52;100892.59;;;5.79;93.90
76434;BME280;65265;53.200;6.080;2023-01-10T17:02:45;100878.34;;;5.81;94.06
76434;BME280;65265;53.200;6.080;2023-01-10T17:07:37;100867.22;;;5.79;94.26
76434;BME280;65265;53.200;6.080;2023-01-10T17:12:30;100854.81;;;5.84;94.54
76434;BME280;65265;53.200;6.080;2023-01-10T17:17:23;100839.59;;;5.84;94.71
76434;BME280;65265;53.200;6.080;2023-01-10T17:22:16;100842.03;;;5.82;94.78
76434;BME280;65265;53.200;6.080;2023-01-10T17:27:07;100814.03;;;5.81;95.02
76434;BME280;65265;53.200;6.080;2023-01-10T17:31:59;100800.03;;;5.87;95.09
76434;BME280;65265;53.200;6.080;2023-01-10T17:36:50;100796.72;;;5.88;94.98
76434;BME280;65265;53.200;6.080;2023-01-10T17:41:43;100770.63;;;5.91;94.99
76434;BME280;65265;53.200;6.080;2023-01-10T17:46:35;100768.00;;;5.89;95.19
76434;BME280;65265;53.200;6.080;2023-01-10T17:51:26;100764.59;;;5.89;95.43
76434;BME280;65265;53.200;6.080;2023-01-10T17:56:18;100745.97;;;5.88;95.60
76434;BME280;65265;53.200;6.080;2023-01-10T18:01:16;100729.78;;;5.86;95.52
76434;BME280;65265;53.200;6.080;2023-01-10T18:06:08;100742.78;;;5.92;95.61
76434;BME280;65265;53.200;6.080;2023-01-10T18:11:01;100702.03;;;5.89;95.92
76434;BME280;65265;53.200;6.080;2023-01-10T18:15:53;100707.44;;;5.95;96.15
76434;BME280;65265;53.200;6.080;2023-01-10T18:20:46;100698.00;;;5.93;96.29
76434;BME280;65265;53.200;6.080;2023-01-10T18:25:39;100669.13;;;5.91;96.61
76434;BME280;65265;53.200;6.080;2023-01-10T18:30:30;100665.84;;;5.93;96.64
76434;BME280;65265;53.200;6.080;2023-01-10T18:35:22;100654.84;;;5.93;96.77
76434;BME280;65265;53.200;6.080;2023-01-10T18:40:16;100649.31;;;6.00;96.58
76434;BME280;65265;53.200;6.080;2023-01-10T18:45:08;100644.16;;;5.98;96.81
76434;BME280;65265;53.200;6.080;2023-01-10T18:50:00;100647.66;;;6.00;97.10
76434;BME280;65265;53.200;6.080;2023-01-10T18:54:51;100624.16;;;6.04;97.01
76434;BME280;65265;53.200;6.080;2023-01-10T18:59:45;100625.31;;;6.09;97.14
76434;BME280;65265;53.200;6.080;2023-01-10T19:04:36;100619.69;;;6.15;97.08
76434;BME280;65265;53.200;6.080;2023-01-10T19:09:28;100588.81;;;6.23;96.99
76434;BME280;65265;53.200;6.080;2023-01-10T19:14:19;100597.56;;;6.28;97.20
76434;BME280;65265;53.200;6.080;2023-01-10T19:19:12;100609.91;;;6.38;96.86
76434;BME280;65265;53.200;6.080;2023-01-10T19:24:06;100603.03;;;6.36;97.26
76434;BME280;65265;53.200;6.080;2023-01-10T19:28:58;100585.00;;;6.47;97.13
76434;BME280;65265;53.200;6.080;2023-01-10T19:33:50;100594.13;;;6.44;97.21
76434;BME280;65265;53.200;6.080;2023-01-10T19:38:43;100574.53;;;6.41;97.37
76434;BME280;65265;53.200;6.080;2023-01-10T19:43:35;100577.47;;;6.49;97.44
76434;BME280;65265;53.200;6.080;2023-01-10T19:48:26;100551.41;;;6.53;97.59
76434;BME280;65265;53.200;6.080;2023-01-10T19:53:18;100544.28;;;6.62;97.67
76434;BME280;65265;53.200;6.080;2023-01-10T19:58:15;100549.72;;;6.69;97.95
76434;BME280;65265;53.200;6.080;2023-01-10T20:03:06;100548.59;;;6.80;98.05
76434;BME280;65265;53.200;6.080;2023-01-10T20:07:58;100531.91;;;6.85;97.72
76434;BME280;65265;53.200;6.080;2023-01-10T20:12:51;100534.25;;;6.98;97.61
76434;BME280;65265;53.200;6.080;2023-01-10T20:17:44;100511.28;;;6.97;97.26
76434;BME280;65265;53.200;6.080;2023-01-10T20:22:35;100517.31;;;6.98;97.64
76434;BME280;65265;53.200;6.080;2023-01-10T20:27:27;100523.56;;;7.05;97.52
76434;BME280;65265;53.200;6.080;2023-01-10T20:32:19;100511.81;;;7.07;97.66
76434;BME280;65265;53.200;6.080;2023-01-10T20:37:11;100501.44;;;7.03;97.91
76434;BME280;65265;53.200;6.080;2023-01-10T20:42:03;100492.41;;;7.09;98.11
76434;BME280;65265;53.200;6.080;2023-01-10T20:46:55;100487.81;;;7.19;97.94
76434;BME280;65265;53.200;6.080;2023-01-10T20:51:47;100486.66;;;7.30;97.85
76434;BME280;65265;53.200;6.080;2023-01-10T20:56:44;100468.22;;;7.34;97.59
76434;BME280;65265;53.200;6.080;2023-01-10T21:01:35;100476.47;;;7.30;98.04
76434;BME280;65265;53.200;6.080;2023-01-10T21:06:27;100454.75;;;7.37;98.20
76434;BME280;65265;53.200;6.080;2023-01-10T21:11:19;100442.44;;;7.46;97.94
76434;BME280;65265;53.200;6.080;2023-01-10T21:16:13;100442.72;;;7.52;98.20
76434;BME280;65265;53.200;6.080;2023-01-10T21:21:06;100439.84;;;7.63;98.09
76434;BME280;65265;53.200;6.080;2023-01-10T21:26:00;100425.59;;;7.67;98.03
76434;BME280;65265;53.200;6.080;2023-01-10T21:30:52;100421.56;;;7.72;97.94
76434;BME280;65265;53.200;6.080;2023-01-10T21:35:51;100431.22;;;7.79;98.00
76434;BME280;65265;53.200;6.080;2023-01-10T21:40:43;100418.16;;;7.90;97.76
76434;BME280;65265;53.200;6.080;2023-01-10T21:45:35;100404.69;;;7.93;97.72
76434;BME280;65265;53.200;6.080;2023-01-10T21:50:27;100404.69;;;7.93;97.93
76434;BME280;65265;53.200;6.080;2023-01-10T21:55:24;100388.75;;;7.97;97.79
76434;BME280;65265;53.200;6.080;2023-01-10T22:00:16;100404.34;;;8.04;97.98
76434;BME280;65265;53.200;6.080;2023-01-10T22:05:08;100388.44;;;8.10;98.21
76434;BME280;65265;53.200;6.080;2023-01-10T22:10:00;100381.47;;;8.25;97.75
76434;BME280;65265;53.200;6.080;2023-01-10T22:14:53;100374.53;;;8.21;97.85
76434;BME280;65265;53.200;6.080;2023-01-10T22:19:45;100376.38;;;8.25;98.13
76434;BME280;65265;53.200;6.080;2023-01-10T22:24:36;100374.28;;;8.35;97.96
76434;BME280;65265;53.200;6.080;2023-01-10T22:29:29;100354.91;;;8.39;97.62
76434;BME280;65265;53.200;6.080;2023-01-10T22:34:22;100360.72;;;8.36;97.93
76434;BME280;65265;53.200;6.080;2023-01-10T22:39:14;100382.84;;;8.37;98.25
76434;BME280;65265;53.200;6.080;2023-01-10T22:44:05;100377.25;;;8.46;98.32
76434;BME280;65265;53.200;6.080;2023-01-10T22:48:58;100365.44;;;8.48;98.46
76434;BME280;65265;53.200;6.080;2023-01-10T22:53:53;100361.53;;;8.56;98.23
76434;BME280;65265;53.200;6.080;2023-01-10T22:58:45;100375.44;;;8.64;98.17
76434;BME280;65265;53.200;6.080;2023-01-10T23:03:37;100357.72;;;8.67;98.35
76434;BME280;65265;53.200;6.080;2023-01-10T23:08:30;100362.91;;;8.70;98.13
76434;BME280;65265;53.200;6.080;2023-01-10T23:13:23;100358.81;;;8.73;98.10
76434;BME280;65265;53.200;6.080;2023-01-10T23:18:15;100357.91;;;8.71;98.30
76434;BME280;65265;53.200;6.080;2023-01-10T23:23:07;100336.25;;;8.82;98.29
76434;BME280;65265;53.200;6.080;2023-01-10T23:27:58;100342.97;;;8.80;98.21
76434;BME280;65265;53.200;6.080;2023-01-10T23:32:51;100337.91;;;8.82;98.54
76434;BME280;65265;53.200;6.080;2023-01-10T23:37:43;100334.84;;;8.90;98.50
76434;BME280;65265;53.200;6.080;2023-01-10T23:42:34;100327.41;;;8.96;98.48
76434;BME280;65265;53.200;6.080;2023-01-10T23:47:26;100339.88;;;8.89;98.82
76434;BME280;65265;53.200;6.080;2023-01-10T23:52:19;100330.25;;;9.04;98.81
76434;BME280;65265;53.200;6.080;2023-01-10T23:57:11;100317.31;;;8.99;98.94
